Time;durP1;ratioP1;P1;durP2;ratioP2;P2;SDS_P1;SDS_P2;PMS_P1;PMS_P2;Temp;Humidity;BMP_temperature;BMP_pressure;BME280_temperature;BME280_humidity;BME280_pressure;Samples;Min_cycle;Max_cycle;Signal;HPM_P1;HPM_P2
2021/07/01 00:00:22;;;;;;;1.67;1.57;;;15.40;99.90;;;;;;4945745;28;20222;-80
2021/07/01 00:02:48;;;;;;;1.63;1.40;;;15.40;99.90;;;;;;4948816;29;20179;-80
2021/07/01 00:05:15;;;;;;;2.00;1.90;;;15.40;99.90;;;;;;4947692;29;20426;-80
2021/07/01 00:07:45;;;;;;;3.13;0.70;;;15.40;99.90;;;;;;4944546;29;20626;-80
2021/07/01 00:10:13;;;;;;;1.47;0.90;;;15.50;99.90;;;;;;4946407;29;20470;-80
2021/07/01 00:12:39;;;;;;;0.80;0.60;;;15.40;99.90;;;;;;4940992;29;20433;-80
2021/07/01 00:15:08;;;;;;;0.70;0.60;;;15.40;99.90;;;;;;4948986;29;20418;-80
2021/07/01 00:17:34;;;;;;;0.87;0.77;;;15.40;99.90;;;;;;4960982;28;20174;-80
2021/07/01 00:20:00;;;;;;;0.80;0.70;;;15.30;99.90;;;;;;4951823;28;20601;-80
2021/07/01 00:22:26;;;;;;;1.03;1.00;;;15.40;99.90;;;;;;4954468;29;20442;-80
2021/07/01 00:24:51;;;;;;;0.80;0.80;;;15.30;99.90;;;;;;4952848;28;20182;-80
2021/07/01 00:27:17;;;;;;;1.00;0.90;;;15.40;99.90;;;;;;4959747;29;20182;-80
2021/07/01 00:29:42;;;;;;;2.60;1.37;;;15.40;99.90;;;;;;4955501;28;20209;-80
2021/07/01 00:32:08;;;;;;;3.43;1.33;;;15.40;99.90;;;;;;4953874;29;20186;-80
2021/07/01 00:34:34;;;;;;;2.60;1.00;;;15.50;99.90;;;;;;4958209;29;20186;-80
2021/07/01 00:37:00;;;;;;;3.37;3.17;;;15.50;99.90;;;;;;4956451;28;20423;-80
2021/07/01 00:39:25;;;;;;;0.80;0.60;;;15.50;99.90;;;;;;4952484;29;20206;-80
2021/07/01 00:41:51;;;;;;;0.70;0.60;;;15.50;99.90;;;;;;4950967;29;20498;-81
2021/07/01 00:44:16;;;;;;;1.00;0.90;;;15.50;99.90;;;;;;4951301;29;20179;-80
2021/07/01 00:46:42;;;;;;;1.60;1.50;;;15.50;99.90;;;;;;4940474;29;20203;-80
2021/07/01 00:49:08;;;;;;;1.63;1.20;;;15.40;99.90;;;;;;4949130;29;20194;-80
2021/07/01 00:51:34;;;;;;;0.70;0.50;;;15.40;99.90;;;;;;4959694;28;20193;-80
2021/07/01 00:54:01;;;;;;;1.23;0.60;;;15.40;99.90;;;;;;4959312;28;20179;-80
2021/07/01 00:56:27;;;;;;;0.80;0.63;;;15.40;99.90;;;;;;4958532;28;20485;-81
2021/07/01 00:58:54;;;;;;;2.33;2.20;;;15.30;99.90;;;;;;4957399;28;20470;-80
2021/07/01 01:01:21;;;;;;;0.70;0.50;;;15.30;99.90;;;;;;4958691;29;20179;-80
2021/07/01 01:03:47;;;;;;;0.70;0.53;;;15.20;99.90;;;;;;4955404;28;20807;-80
2021/07/01 01:06:14;;;;;;;1.10;0.70;;;15.30;99.90;;;;;;4949423;28;20432;-80
2021/07/01 01:08:40;;;;;;;2.27;2.17;;;15.20;99.90;;;;;;4955377;28;20792;-80
2021/07/01 01:11:05;;;;;;;1.97;1.77;;;15.20;99.90;;;;;;4958521;28;20537;-80
2021/07/01 01:13:31;;;;;;;0.80;0.70;;;15.20;99.90;;;;;;4946727;28;20510;-80
2021/07/01 01:16:00;;;;;;;0.80;0.80;;;15.20;99.90;;;;;;4946615;28;20183;-80
2021/07/01 01:18:27;;;;;;;1.33;1.17;;;15.20;99.90;;;;;;4955861;28;20454;-80
2021/07/01 01:20:55;;;;;;;0.70;0.53;;;15.10;99.90;;;;;;4944350;29;20554;-80
2021/07/01 01:23:21;;;;;;;0.70;0.60;;;15.20;99.90;;;;;;4938403;29;20485;-80
2021/07/01 01:25:52;;;;;;;1.23;1.17;;;15.20;99.90;;;;;;4946581;29;20489;-80
2021/07/01 01:28:18;;;;;;;1.63;1.53;;;15.10;99.90;;;;;;4957893;28;20517;-80
2021/07/01 01:30:44;;;;;;;1.00;0.60;;;15.00;99.90;;;;;;4956032;29;20429;-80
2021/07/01 01:33:11;;;;;;;0.70;0.50;;;15.00;99.90;;;;;;4949292;28;20417;-80
2021/07/01 01:35:37;;;;;;;0.70;0.63;;;15.10;99.90;;;;;;4950102;28;20912;-80
2021/07/01 01:38:07;;;;;;;2.13;2.00;;;15.10;99.90;;;;;;4950965;28;20451;-81
2021/07/01 01:40:33;;;;;;;0.70;0.50;;;15.10;99.90;;;;;;4952904;29;20946;-80
2021/07/01 01:42:59;;;;;;;0.70;0.60;;;15.10;99.90;;;;;;4953988;28;20427;-80
2021/07/01 01:45:24;;;;;;;0.80;0.60;;;15.10;99.90;;;;;;4941733;29;20179;-80
2021/07/01 01:47:50;;;;;;;0.70;0.60;;;15.10;99.90;;;;;;4953944;28;20182;-80
2021/07/01 01:50:17;;;;;;;0.90;0.70;;;15.10;99.90;;;;;;4955912;29;20687;-80
2021/07/01 01:52:42;;;;;;;1.17;1.07;;;15.20;99.90;;;;;;4942237;29;20418;-80
2021/07/01 01:55:10;;;;;;;13.00;1.13;;;15.10;99.90;;;;;;4949468;29;20935;-80
2021/07/01 01:57:35;;;;;;;1.43;1.33;;;15.20;99.90;;;;;;4944576;29;20175;-80
2021/07/01 02:00:02;;;;;;;2.27;0.90;;;15.20;99.90;;;;;;4958910;28;20456;-80
2021/07/01 02:02:28;;;;;;;0.77;0.57;;;15.20;99.90;;;;;;4952808;28;20294;-80
2021/07/01 02:04:53;;;;;;;2.67;0.90;;;15.20;99.90;;;;;;4955394;28;20422;-80
2021/07/01 02:07:19;;;;;;;0.80;0.70;;;15.20;99.90;;;;;;4951532;29;20179;-80
2021/07/01 02:09:44;;;;;;;0.70;0.60;;;15.20;99.90;;;;;;4940533;29;20214;-81
2021/07/01 02:12:10;;;;;;;0.87;0.73;;;15.10;99.90;;;;;;4949792;29;20182;-80
2021/07/01 02:14:35;;;;;;;0.70;0.50;;;15.10;99.90;;;;;;4953347;28;20748;-79
2021/07/01 02:17:02;;;;;;;0.80;0.60;;;15.10;99.90;;;;;;4944860;29;20190;-79
2021/07/01 02:19:27;;;;;;;1.80;1.70;;;15.00;99.90;;;;;;4946619;29;20225;-79
2021/07/01 02:21:53;;;;;;;0.80;0.70;;;15.00;99.90;;;;;;4951323;29;20433;-80
2021/07/01 02:24:18;;;;;;;0.70;0.53;;;15.00;99.90;;;;;;4946710;28;20187;-80
2021/07/01 02:26:44;;;;;;;1.07;1.07;;;15.00;99.90;;;;;;4942453;29;20166;-80
2021/07/01 02:29:10;;;;;;;0.90;0.70;;;15.00;99.90;;;;;;4951473;29;20249;-80
2021/07/01 02:31:35;;;;;;;0.70;0.60;;;15.00;99.90;;;;;;4956772;29;20182;-80
2021/07/01 02:34:01;;;;;;;0.80;0.70;;;15.00;99.90;;;;;;4952513;29;20188;-79
2021/07/01 02:36:26;;;;;;;0.70;0.50;;;15.00;99.90;;;;;;4948577;28;20194;-79
2021/07/01 02:38:52;;;;;;;0.93;0.90;;;15.00;99.90;;;;;;4949432;29;20199;-79
2021/07/01 02:41:17;;;;;;;0.70;0.70;;;15.00;99.90;;;;;;4938563;29;20272;-79
2021/07/01 02:43:43;;;;;;;1.77;1.67;;;15.00;99.90;;;;;;4945227;29;20234;-80
2021/07/01 02:46:08;;;;;;;1.53;1.43;;;15.00;99.90;;;;;;4951146;29;20309;-79
2021/07/01 02:48:34;;;;;;;1.20;1.00;;;15.00;99.90;;;;;;4957256;29;20673;-79
2021/07/01 02:50:59;;;;;;;2.10;1.53;;;15.00;99.90;;;;;;4944328;29;20183;-79
2021/07/01 02:53:25;;;;;;;1.70;1.60;;;15.00;99.90;;;;;;4953551;29;20179;-80
2021/07/01 02:55:50;;;;;;;0.80;0.80;;;15.00;99.90;;;;;;4938085;29;20551;-80
2021/07/01 02:58:16;;;;;;;0.80;0.70;;;14.90;99.90;;;;;;4956126;29;20202;-79
2021/07/01 03:00:41;;;;;;;0.80;0.60;;;15.00;99.90;;;;;;4955949;29;20179;-80
2021/07/01 03:03:07;;;;;;;4.10;2.20;;;15.00;99.90;;;;;;4949787;29;20261;-80
2021/07/01 03:05:33;;;;;;;0.70;0.70;;;15.00;99.90;;;;;;4954032;28;20209;-79
2021/07/01 03:07:58;;;;;;;1.00;0.80;;;15.00;99.90;;;;;;4956916;29;20524;-79
2021/07/01 03:10:24;;;;;;;1.93;1.83;;;14.90;99.90;;;;;;4957467;29;20256;-79
2021/07/01 03:12:49;;;;;;;1.67;1.57;;;15.00;99.90;;;;;;4945035;28;20182;-81
2021/07/01 03:15:15;;;;;;;1.30;1.20;;;15.00;99.90;;;;;;4942523;29;20193;-79
2021/07/01 03:17:40;;;;;;;2.90;2.70;;;15.00;99.90;;;;;;4956285;29;20253;-79
2021/07/01 03:20:07;;;;;;;2.63;2.50;;;14.90;99.90;;;;;;4953838;29;20746;-79
2021/07/01 03:22:32;;;;;;;1.70;0.90;;;14.90;99.90;;;;;;4956931;29;20558;-79
2021/07/01 03:24:58;;;;;;;1.60;1.50;;;14.90;99.90;;;;;;4947445;29;20426;-79
2021/07/01 03:27:23;;;;;;;2.77;2.60;;;14.90;99.90;;;;;;4948886;29;20202;-80
2021/07/01 03:29:49;;;;;;;0.90;0.70;;;14.90;99.90;;;;;;4957170;29;20221;-79
2021/07/01 03:32:15;;;;;;;0.83;0.80;;;14.90;99.90;;;;;;4955959;29;20529;-80
2021/07/01 03:34:40;;;;;;;1.57;0.77;;;14.90;99.90;;;;;;4956956;29;20171;-80
2021/07/01 03:37:06;;;;;;;0.70;0.50;;;14.80;99.90;;;;;;4956318;29;20213;-79
2021/07/01 03:39:31;;;;;;;0.70;0.50;;;14.90;99.90;;;;;;4954683;29;20689;-80
2021/07/01 03:41:57;;;;;;;1.57;1.47;;;14.90;99.90;;;;;;4953286;29;20179;-79
2021/07/01 03:44:22;;;;;;;0.80;0.70;;;14.80;99.90;;;;;;4952068;29;20206;-80
2021/07/01 03:46:48;;;;;;;2.50;0.80;;;14.80;99.90;;;;;;4947887;29;20183;-80
2021/07/01 03:49:14;;;;;;;2.63;2.23;;;14.80;99.90;;;;;;4955062;29;20198;-81
2021/07/01 03:51:39;;;;;;;1.23;1.00;;;14.80;99.90;;;;;;4949857;29;20614;-79
2021/07/01 03:54:05;;;;;;;3.27;2.97;;;14.90;99.90;;;;;;4958968;29;20182;-80
2021/07/01 03:56:41;;;;;;;0.90;0.60;;;14.90;99.90;;;;;;4957860;28;20273;-80
2021/07/01 03:59:15;;;;;;;0.70;0.60;;;14.80;99.90;;;;;;4957938;28;20465;-79
2021/07/01 04:01:41;;;;;;;1.53;0.80;;;14.80;99.90;;;;;;4952626;29;20433;-80
2021/07/01 04:04:07;;;;;;;6.93;2.13;;;14.80;99.90;;;;;;4949912;28;20418;-79
2021/07/01 04:06:34;;;;;;;1.83;1.40;;;14.70;99.90;;;;;;4958124;28;20981;-80
2021/07/01 04:09:00;;;;;;;1.87;1.77;;;14.80;99.90;;;;;;4949003;28;20451;-79
2021/07/01 04:11:26;;;;;;;1.60;1.50;;;14.80;99.90;;;;;;4944998;29;20862;-80
2021/07/01 04:13:52;;;;;;;0.70;0.50;;;14.70;99.90;;;;;;4957333;29;20422;-80
2021/07/01 04:16:18;;;;;;;1.70;1.60;;;14.70;99.90;;;;;;4957091;29;20433;-80
2021/07/01 04:18:43;;;;;;;3.07;2.73;;;14.70;99.90;;;;;;4950939;28;20462;-80
2021/07/01 04:21:09;;;;;;;0.90;0.80;;;14.60;99.90;;;;;;4948156;29;20163;-79
2021/07/01 04:23:34;;;;;;;1.33;0.70;;;14.70;99.90;;;;;;4945232;29;20552;-80
2021/07/01 04:26:00;;;;;;;1.90;1.73;;;14.70;99.90;;;;;;4951044;29;20171;-80
2021/07/01 04:28:26;;;;;;;0.80;0.63;;;14.70;99.90;;;;;;4953335;29;20200;-80
2021/07/01 04:30:51;;;;;;;2.50;1.20;;;14.80;99.90;;;;;;4956848;29;20202;-81
2021/07/01 04:33:17;;;;;;;1.67;0.70;;;14.80;99.90;;;;;;4958933;29;20273;-80
2021/07/01 04:35:48;;;;;;;2.70;0.90;;;14.80;99.90;;;;;;4942984;29;20196;-81
2021/07/01 04:38:15;;;;;;;2.47;1.97;;;14.80;99.90;;;;;;4939682;29;20274;-80
2021/07/01 04:40:41;;;;;;;1.00;0.80;;;14.80;99.90;;;;;;4945009;29;20476;-80
2021/07/01 04:43:07;;;;;;;2.30;0.70;;;14.90;99.90;;;;;;4950023;29;20426;-80
2021/07/01 04:45:33;;;;;;;2.37;2.00;;;14.90;99.90;;;;;;4956686;28;20850;-80
2021/07/01 04:47:58;;;;;;;1.00;0.90;;;14.90;99.90;;;;;;4957756;28;20264;-81
2021/07/01 04:50:24;;;;;;;2.97;2.77;;;14.90;99.90;;;;;;4947907;28;20211;-80
2021/07/01 04:52:50;;;;;;;0.93;0.73;;;14.90;99.90;;;;;;4948667;29;20177;-80
2021/07/01 04:55:15;;;;;;;5.13;1.17;;;14.90;99.90;;;;;;4946278;28;20178;-80
2021/07/01 04:57:41;;;;;;;1.90;1.80;;;14.90;99.90;;;;;;4951739;28;20674;-80
2021/07/01 05:00:07;;;;;;;1.20;1.10;;;14.90;99.90;;;;;;4951322;28;20563;-79
2021/07/01 05:02:32;;;;;;;1.50;0.90;;;15.00;99.90;;;;;;4935927;29;20585;-80
2021/07/01 05:04:58;;;;;;;1.27;0.80;;;15.00;99.90;;;;;;4938906;29;20489;-80
2021/07/01 05:07:23;;;;;;;1.00;0.80;;;15.00;99.90;;;;;;4940699;29;20173;-80
2021/07/01 05:09:49;;;;;;;5.03;2.50;;;15.10;99.90;;;;;;4937632;29;20584;-80
2021/07/01 05:12:14;;;;;;;2.10;1.53;;;15.10;99.90;;;;;;4947031;29;20178;-80
2021/07/01 05:14:40;;;;;;;1.60;1.47;;;15.10;99.90;;;;;;4945001;28;20547;-79
2021/07/01 05:17:06;;;;;;;0.80;0.70;;;15.20;99.90;;;;;;4955940;28;20186;-80
2021/07/01 05:19:31;;;;;;;5.10;1.33;;;15.20;99.90;;;;;;4951718;28;20672;-80
2021/07/01 05:21:57;;;;;;;1.63;1.53;;;15.20;99.90;;;;;;4953338;28;20955;-79
2021/07/01 05:24:23;;;;;;;0.90;0.70;;;15.20;99.90;;;;;;4946719;28;20534;-80
2021/07/01 05:26:48;;;;;;;1.77;1.67;;;15.20;99.90;;;;;;4951738;28;20175;-80
2021/07/01 05:29:14;;;;;;;5.00;1.73;;;15.20;99.90;;;;;;4948381;29;20202;-80
2021/07/01 05:31:40;;;;;;;1.20;0.90;;;15.10;99.90;;;;;;4952325;28;20181;-80
2021/07/01 05:34:05;;;;;;;0.70;0.60;;;15.20;99.90;;;;;;4945594;28;20430;-79
2021/07/01 05:36:31;;;;;;;2.63;2.20;;;15.10;99.90;;;;;;4945152;28;20182;-79
2021/07/01 05:38:56;;;;;;;4.90;2.97;;;15.20;99.90;;;;;;4945823;28;20221;-80
2021/07/01 05:41:22;;;;;;;0.70;0.60;;;15.20;99.90;;;;;;4952037;29;20174;-80
2021/07/01 05:43:47;;;;;;;2.40;0.90;;;15.30;99.90;;;;;;4943410;29;20181;-80
2021/07/01 05:46:13;;;;;;;0.77;0.70;;;15.20;99.90;;;;;;4947204;29;20179;-79
2021/07/01 05:48:39;;;;;;;2.20;2.00;;;15.20;99.90;;;;;;4943345;28;20202;-79
2021/07/01 05:51:06;;;;;;;1.10;1.00;;;15.20;99.90;;;;;;4948862;28;20183;-79
2021/07/01 05:53:37;;;;;;;3.50;2.90;;;15.30;99.90;;;;;;4953941;29;20179;-80
2021/07/01 05:56:03;;;;;;;0.90;0.80;;;15.30;99.90;;;;;;4953309;28;20429;-80
2021/07/01 05:58:28;;;;;;;2.30;0.93;;;15.30;99.90;;;;;;4945758;28;20904;-80
2021/07/01 06:00:54;;;;;;;2.60;1.00;;;15.30;99.90;;;;;;4955380;28;20170;-80
2021/07/01 06:03:20;;;;;;;0.70;0.50;;;15.30;99.90;;;;;;4945971;28;20540;-80
2021/07/01 06:05:52;;;;;;;0.97;0.90;;;15.30;99.90;;;;;;4945292;29;20178;-81
2021/07/01 06:08:20;;;;;;;2.33;0.80;;;15.30;99.90;;;;;;4944902;29;20423;-80
2021/07/01 06:10:46;;;;;;;0.97;0.73;;;15.40;99.90;;;;;;4954372;28;20418;-81
2021/07/01 06:13:14;;;;;;;1.23;1.13;;;15.40;99.90;;;;;;4952990;29;20488;-80
2021/07/01 06:15:39;;;;;;;20.57;1.67;;;15.40;99.90;;;;;;4939670;28;20422;-80
2021/07/01 06:18:05;;;;;;;1.60;1.43;;;15.50;99.90;;;;;;4947713;29;20516;-80
2021/07/01 06:20:31;;;;;;;0.80;0.60;;;15.40;99.90;;;;;;4950398;29;20213;-80
2021/07/01 06:22:56;;;;;;;3.37;2.93;;;15.50;99.90;;;;;;4949667;29;20182;-79
2021/07/01 06:25:23;;;;;;;1.90;1.40;;;15.50;99.90;;;;;;4947979;28;20706;-81
2021/07/01 06:27:49;;;;;;;0.90;0.90;;;15.40;99.90;;;;;;4969442;28;20174;-79
2021/07/01 06:30:23;;;;;;;1.27;0.97;;;15.40;99.90;;;;;;4941856;28;20450;-80
2021/07/01 06:32:53;;;;;;;1.40;1.30;;;15.50;99.90;;;;;;4940407;29;20418;-80
2021/07/01 06:35:21;;;;;;;0.80;0.60;;;15.50;99.90;;;;;;4935548;29;20946;-80
2021/07/01 06:37:48;;;;;;;1.43;1.33;;;15.50;99.90;;;;;;4946784;29;20465;-80
2021/07/01 06:40:16;;;;;;;1.57;1.10;;;15.50;99.90;;;;;;4954282;28;20446;-80
2021/07/01 06:43:02;;;;;;;3.90;1.27;;;15.50;99.90;;;;;;4950366;28;20990;-80
2021/07/01 06:45:29;;;;;;;1.23;1.10;;;15.50;99.90;;;;;;4964865;28;20436;-80
2021/07/01 06:47:56;;;;;;;0.77;0.77;;;15.50;99.90;;;;;;4950679;28;20422;-80
2021/07/01 06:50:26;;;;;;;0.80;0.80;;;15.40;99.90;;;;;;4942980;29;20449;-80
2021/07/01 06:52:53;;;;;;;1.13;1.03;;;15.40;99.90;;;;;;4945554;28;20460;-80
2021/07/01 06:55:20;;;;;;;1.17;1.07;;;15.40;99.90;;;;;;4938433;28;20454;-80
2021/07/01 06:57:46;;;;;;;3.13;0.80;;;15.30;99.90;;;;;;4954704;28;20442;-79
2021/07/01 07:00:17;;;;;;;0.80;0.70;;;15.20;99.90;;;;;;4947362;28;21018;-78
2021/07/01 07:02:42;;;;;;;0.93;0.70;;;15.10;99.90;;;;;;4951109;28;20174;-79
2021/07/01 07:05:13;;;;;;;0.70;0.50;;;15.10;99.90;;;;;;4961892;28;20509;-79
2021/07/01 07:07:44;;;;;;;1.93;1.00;;;15.10;99.90;;;;;;4940656;29;20183;-79
2021/07/01 07:10:12;;;;;;;0.90;0.90;;;15.20;99.90;;;;;;4951804;28;20482;-80
2021/07/01 07:12:43;;;;;;;0.70;0.60;;;15.30;99.90;;;;;;4945925;28;20883;-80
2021/07/01 07:15:14;;;;;;;0.80;0.70;;;15.20;99.90;;;;;;4947232;29;20434;-79
2021/07/01 07:17:41;;;;;;;3.77;3.57;;;15.30;99.90;;;;;;4943412;29;21123;-79
2021/07/01 07:20:08;;;;;;;1.63;1.00;;;15.20;99.90;;;;;;4948615;29;20473;-80
2021/07/01 07:22:39;;;;;;;1.37;0.87;;;15.20;99.90;;;;;;4953711;28;20528;-79
2021/07/01 07:25:07;;;;;;;0.90;0.80;;;15.20;99.90;;;;;;4947927;29;20513;-80
2021/07/01 07:27:33;;;;;;;0.70;0.50;;;15.30;99.90;;;;;;4961625;29;20430;-78
2021/07/01 07:29:59;;;;;;;1.27;1.17;;;15.30;99.90;;;;;;4954649;28;20517;-81
2021/07/01 07:32:29;;;;;;;13.53;0.80;;;15.40;99.90;;;;;;4955275;29;20457;-79
2021/07/01 07:34:55;;;;;;;3.13;0.73;;;15.40;99.90;;;;;;4951002;29;20473;-78
2021/07/01 07:37:21;;;;;;;2.17;1.50;;;15.60;99.90;;;;;;4948944;29;20970;-74
2021/07/01 07:39:47;;;;;;;1.00;0.90;;;15.60;99.90;;;;;;4953695;29;20473;-84
2021/07/01 07:42:14;;;;;;;0.70;0.50;;;15.70;99.90;;;;;;4959724;28;20182;-83
2021/07/01 07:44:41;;;;;;;0.70;0.50;;;15.70;99.90;;;;;;4955827;28;20483;-86
2021/07/01 07:47:12;;;;;;;1.50;1.03;;;15.80;99.90;;;;;;4965091;28;20438;-83
2021/07/01 07:49:37;;;;;;;0.80;0.70;;;15.90;99.90;;;;;;4939511;29;20458;-84
2021/07/01 07:52:08;;;;;;;2.10;2.00;;;15.90;99.90;;;;;;4937845;29;20462;-80
2021/07/01 07:54:49;;;;;;;1.27;1.17;;;16.10;99.90;;;;;;4956105;29;20547;-79
2021/07/01 07:57:17;;;;;;;2.30;1.27;;;16.10;99.90;;;;;;4948401;28;20935;-79
2021/07/01 07:59:51;;;;;;;0.97;0.97;;;16.20;99.90;;;;;;4955030;28;20869;-84
2021/07/01 08:02:25;;;;;;;2.40;1.70;;;16.30;99.90;;;;;;4955830;28;20448;-78
2021/07/01 08:04:51;;;;;;;0.80;0.70;;;16.40;99.90;;;;;;4979181;28;20497;-75
2021/07/01 08:07:17;;;;;;;1.50;1.40;;;16.60;99.90;;;;;;4968976;28;20456;-79
2021/07/01 08:09:43;;;;;;;3.40;0.80;;;16.80;99.90;;;;;;4963546;28;20214;-77
2021/07/01 08:12:10;;;;;;;1.63;1.57;;;16.70;99.90;;;;;;4961144;28;20460;-80
2021/07/01 08:14:41;;;;;;;1.30;1.20;;;16.80;99.90;;;;;;4956795;28;20291;-80
2021/07/01 08:17:07;;;;;;;1.50;1.10;;;16.80;99.90;;;;;;4963201;28;20441;-80
2021/07/01 08:19:35;;;;;;;1.60;1.50;;;16.80;99.90;;;;;;4958869;28;20471;-79
2021/07/01 08:22:01;;;;;;;4.63;0.77;;;16.90;99.90;;;;;;4958015;28;20914;-81
2021/07/01 08:24:27;;;;;;;0.70;0.50;;;17.00;99.90;;;;;;4961858;28;21042;-81
2021/07/01 08:26:53;;;;;;;0.80;0.70;;;17.00;99.90;;;;;;4960185;28;20497;-83
2021/07/01 08:29:19;;;;;;;0.77;0.60;;;17.20;99.90;;;;;;4958796;28;20445;-81
2021/07/01 08:31:46;;;;;;;1.00;0.90;;;17.20;99.90;;;;;;4961926;28;20417;-82
2021/07/01 08:34:13;;;;;;;1.63;1.53;;;17.30;99.90;;;;;;4963031;28;20189;-80
2021/07/01 08:36:45;;;;;;;0.80;0.70;;;17.00;99.90;;;;;;4962256;28;20418;-79
2021/07/01 08:39:10;;;;;;;1.77;1.67;;;16.90;99.90;;;;;;4972671;28;20468;-80
2021/07/01 08:41:41;;;;;;;2.07;0.80;;;16.80;99.90;;;;;;4968460;28;20414;-81
2021/07/01 08:44:08;;;;;;;0.80;0.73;;;16.70;99.90;;;;;;4974540;28;20254;-79
2021/07/01 08:46:59;;;;;;;0.80;0.60;;;16.80;99.90;;;;;;4970159;28;20469;-80
2021/07/01 08:49:46;;;;;;;0.80;0.60;;;16.90;99.90;;;;;;4978290;28;20543;-81
2021/07/01 08:52:15;;;;;;;0.80;0.70;;;17.00;99.90;;;;;;4964984;28;20476;-80
2021/07/01 08:54:43;;;;;;;1.63;1.23;;;17.00;99.90;;;;;;4955210;29;20469;-80
2021/07/01 08:57:16;;;;;;;0.80;0.70;;;16.90;99.90;;;;;;4956068;29;20420;-79
2021/07/01 08:59:54;;;;;;;0.80;0.70;;;16.90;99.90;;;;;;4960127;28;20477;-81
2021/07/01 09:02:29;;;;;;;2.20;0.60;;;17.00;99.90;;;;;;4964376;28;20440;-77
2021/07/01 09:04:56;;;;;;;1.43;1.27;;;17.20;99.90;;;;;;4963989;28;20422;-81
2021/07/01 09:07:24;;;;;;;0.70;0.57;;;17.20;99.90;;;;;;4955294;28;20446;-81
2021/07/01 09:09:54;;;;;;;1.30;1.00;;;17.20;99.90;;;;;;4960801;28;20440;-79
2021/07/01 09:12:23;;;;;;;0.70;0.50;;;17.20;99.90;;;;;;4963896;28;20413;-80
2021/07/01 09:14:56;;;;;;;1.43;1.33;;;17.20;99.90;;;;;;4958568;28;20880;-81
2021/07/01 09:17:26;;;;;;;1.33;1.23;;;17.30;99.90;;;;;;4964934;28;20421;-81
2021/07/01 09:19:55;;;;;;;1.90;1.80;;;17.50;99.90;;;;;;4962327;28;20480;-81
2021/07/01 09:22:23;;;;;;;1.13;0.70;;;17.70;99.90;;;;;;4960365;28;20409;-81
2021/07/01 09:24:50;;;;;;;1.00;0.80;;;17.90;99.90;;;;;;4962496;28;20419;-81
2021/07/01 09:27:16;;;;;;;1.23;1.13;;;18.10;99.90;;;;;;4952501;28;20418;-81
2021/07/01 09:29:44;;;;;;;0.80;0.70;;;18.30;99.90;;;;;;4952324;28;20451;-80
2021/07/01 09:32:11;;;;;;;0.80;0.77;;;18.20;99.90;;;;;;4962739;28;20437;-81
2021/07/01 09:34:38;;;;;;;1.33;0.70;;;18.10;99.90;;;;;;4957091;28;20750;-82
2021/07/01 09:37:05;;;;;;;0.97;0.90;;;18.10;99.90;;;;;;4962431;28;20455;-82
2021/07/01 09:39:34;;;;;;;4.37;1.10;;;18.00;99.90;;;;;;4961661;28;20473;-82
2021/07/01 09:42:02;;;;;;;1.63;1.33;;;17.90;99.90;;;;;;4963041;28;20453;-80
2021/07/01 09:44:29;;;;;;;0.90;0.70;;;17.80;99.90;;;;;;4957494;28;21002;-82
2021/07/01 09:47:00;;;;;;;2.77;2.50;;;17.70;99.90;;;;;;4959695;28;20482;-80
2021/07/01 09:49:31;;;;;;;3.93;1.77;;;17.50;99.90;;;;;;4959511;28;20444;-82
2021/07/01 09:52:00;;;;;;;1.20;1.10;;;17.50;99.90;;;;;;4964265;28;20428;-81
2021/07/01 09:54:30;;;;;;;1.33;1.23;;;17.60;99.90;;;;;;4959850;28;20422;-81
2021/07/01 09:56:58;;;;;;;2.63;2.43;;;17.60;99.90;;;;;;4965527;28;20953;-82
2021/07/01 09:59:26;;;;;;;1.33;1.27;;;17.50;99.90;;;;;;4964285;28;20986;-81
2021/07/01 10:01:52;;;;;;;0.90;0.77;;;17.40;99.90;;;;;;4957615;28;20418;-81
2021/07/01 10:04:18;;;;;;;1.37;0.80;;;17.30;99.90;;;;;;4959138;28;20420;-81
2021/07/01 10:06:44;;;;;;;1.77;1.17;;;17.30;99.90;;;;;;4961552;28;20411;-81
2021/07/01 10:09:28;;;;;;;0.80;0.70;;;17.20;99.90;;;;;;4957803;28;20202;-82
2021/07/01 10:11:54;;;;;;;0.80;0.80;;;17.30;99.90;;;;;;4957821;28;20421;-81
2021/07/01 10:14:22;;;;;;;0.70;0.50;;;17.40;99.90;;;;;;4956922;28;20855;-81
2021/07/01 10:16:48;;;;;;;1.57;0.83;;;17.50;99.90;;;;;;4951391;28;20444;-81
2021/07/01 10:19:19;;;;;;;0.70;0.50;;;17.60;99.90;;;;;;4959603;28;20581;-81
2021/07/01 10:21:45;;;;;;;0.83;0.70;;;17.60;99.90;;;;;;4961028;28;20943;-80
2021/07/01 10:24:13;;;;;;;1.43;0.70;;;17.70;99.90;;;;;;4956609;28;20441;-80
2021/07/01 10:26:42;;;;;;;1.27;0.80;;;17.60;99.90;;;;;;4960190;28;20170;-81
2021/07/01 10:29:09;;;;;;;0.70;0.50;;;17.60;99.90;;;;;;4960750;28;20437;-82
2021/07/01 10:31:55;;;;;;;0.80;0.60;;;17.80;99.90;;;;;;4958780;28;20450;-83
2021/07/01 10:34:21;;;;;;;0.87;0.87;;;18.00;99.90;;;;;;4969869;28;20452;-84
2021/07/01 10:36:47;;;;;;;0.87;0.70;;;17.90;99.90;;;;;;4964438;28;20996;-82
2021/07/01 10:39:13;;;;;;;4.73;1.30;;;17.80;99.90;;;;;;4968889;28;20468;-83
2021/07/01 10:41:41;;;;;;;0.77;0.57;;;17.70;99.90;;;;;;4969509;28;20418;-82
2021/07/01 10:44:20;;;;;;;0.80;0.60;;;17.70;99.90;;;;;;4966284;28;20170;-82
2021/07/01 10:46:48;;;;;;;1.17;0.97;;;17.50;99.90;;;;;;4970144;28;20436;-82
2021/07/01 10:49:14;;;;;;;1.73;0.90;;;17.50;99.90;;;;;;4959688;28;21145;-80
2021/07/01 10:51:52;;;;;;;1.20;1.10;;;17.60;99.90;;;;;;4961542;28;20444;-82
2021/07/01 10:54:18;;;;;;;1.20;0.90;;;17.70;99.90;;;;;;4959264;28;20437;-83
2021/07/01 10:56:45;;;;;;;1.07;1.00;;;17.90;99.90;;;;;;4964017;28;20922;-82
2021/07/01 10:59:12;;;;;;;0.80;0.80;;;18.10;99.90;;;;;;4967216;28;20232;-83
2021/07/01 11:01:41;;;;;;;0.70;0.57;;;18.20;99.90;;;;;;4967770;28;20416;-83
2021/07/01 11:04:17;;;;;;;7.30;1.33;;;18.30;99.90;;;;;;4960700;28;20793;-83
2021/07/01 11:06:45;;;;;;;0.90;0.80;;;18.30;99.90;;;;;;4982931;28;20427;-84
2021/07/01 11:09:14;;;;;;;0.70;0.50;;;18.20;99.90;;;;;;4960023;28;20525;-83
2021/07/01 11:11:41;;;;;;;0.80;0.60;;;18.20;99.90;;;;;;4969003;28;20416;-81
2021/07/01 11:14:09;;;;;;;0.70;0.60;;;18.00;99.90;;;;;;4958114;28;20433;-81
2021/07/01 11:16:39;;;;;;;0.70;0.60;;;18.10;99.90;;;;;;4960431;28;20833;-81
2021/07/01 11:19:06;;;;;;;0.70;0.50;;;18.10;99.90;;;;;;4919615;28;1059609;-81
2021/07/01 11:21:33;;;;;;;1.30;1.20;;;18.00;99.90;;;;;;4954437;28;20449;-83
2021/07/01 11:24:52;;;;;;;0.70;0.50;;;18.00;99.90;;;;;;4968587;28;20422;-83
2021/07/01 11:28:31;;;;;;;1.40;1.13;;;18.00;99.90;;;;;;4958000;28;20408;-82
2021/07/01 11:31:02;;;;;;;1.03;0.90;;;17.90;99.90;;;;;;4946388;28;20441;-82
2021/07/01 11:33:29;;;;;;;0.80;0.80;;;17.90;99.90;;;;;;4962192;28;20425;-81
2021/07/01 11:36:10;;;;;;;0.80;0.70;;;17.90;99.90;;;;;;4960835;28;20422;-81
2021/07/01 11:38:36;;;;;;;1.57;1.47;;;17.80;99.90;;;;;;4967726;28;20472;-80
2021/07/01 11:41:05;;;;;;;2.13;1.43;;;17.60;99.90;;;;;;4962299;28;20504;-81
2021/07/01 11:43:41;;;;;;;1.30;0.93;;;17.60;99.90;;;;;;4962558;28;21085;-82
2021/07/01 11:46:08;;;;;;;1.67;1.27;;;17.50;99.90;;;;;;4960274;28;20423;-82
2021/07/01 11:48:35;;;;;;;1.77;1.67;;;17.40;99.90;;;;;;4965550;28;20449;-82
2021/07/01 11:51:03;;;;;;;2.83;1.27;;;17.40;99.90;;;;;;4957566;28;20428;-82
2021/07/01 11:53:29;;;;;;;1.13;1.03;;;17.40;99.90;;;;;;4961859;28;20421;-81
2021/07/01 11:55:58;;;;;;;2.70;0.70;;;17.30;99.90;;;;;;4949216;28;20494;-81
2021/07/01 11:58:25;;;;;;;1.73;0.80;;;17.30;99.90;;;;;;4940327;29;20203;-81
2021/07/01 12:00:52;;;;;;;1.10;0.90;;;17.20;99.90;;;;;;4968300;28;20422;-82
2021/07/01 12:03:18;;;;;;;1.40;1.20;;;17.20;99.90;;;;;;4958664;28;20422;-82
2021/07/01 12:05:46;;;;;;;0.77;0.53;;;17.00;99.90;;;;;;4957354;28;21006;-82
2021/07/01 12:08:13;;;;;;;4.17;0.70;;;17.10;99.90;;;;;;4945872;28;20591;-81
2021/07/01 12:10:39;;;;;;;0.70;0.70;;;17.00;99.90;;;;;;4944734;29;20422;-82
2021/07/01 12:13:40;;;;;;;1.20;0.80;;;17.10;99.90;;;;;;4958178;28;20835;-81
2021/07/01 12:16:08;;;;;;;1.10;0.90;;;17.10;99.90;;;;;;4942307;29;20441;-81
2021/07/01 12:18:51;;;;;;;2.93;1.67;;;17.20;99.90;;;;;;4944629;29;20533;-81
2021/07/01 12:21:31;;;;;;;0.70;0.50;;;17.20;99.90;;;;;;4949579;28;20562;-82
2021/07/01 12:24:03;;;;;;;3.50;1.13;;;17.20;99.90;;;;;;4954102;28;20473;-82
2021/07/01 12:26:34;;;;;;;1.23;1.17;;;17.20;99.90;;;;;;4944380;29;20418;-82
2021/07/01 12:29:02;;;;;;;4.43;2.50;;;17.30;99.90;;;;;;4948761;29;20465;-82
2021/07/01 12:31:28;;;;;;;1.37;0.77;;;17.40;99.90;;;;;;4948255;29;21003;-82
2021/07/01 12:33:55;;;;;;;1.90;1.73;;;17.50;99.90;;;;;;4942435;29;20818;-81
2021/07/01 12:36:25;;;;;;;2.10;1.47;;;17.40;99.90;;;;;;4945215;29;20800;-83
2021/07/01 12:39:47;;;;;;;2.50;2.30;;;17.50;99.90;;;;;;4964675;29;20477;-82
2021/07/01 12:43:14;;;;;;;0.90;0.70;;;17.60;99.90;;;;;;4960123;29;20513;-82
2021/07/01 12:46:00;;;;;;;1.80;1.37;;;17.60;99.90;;;;;;4913433;29;20410;-82
2021/07/01 12:48:40;;;;;;;1.70;1.10;;;17.60;99.90;;;;;;4957296;28;20425;-81
2021/07/01 12:51:43;;;;;;;1.07;0.97;;;17.40;99.90;;;;;;4947204;29;20186;-81